createdAt,value
2022-10-16T00:02:14.339Z,22.00
2022-10-16T00:07:17.420Z,20.40
2022-10-16T00:12:20.256Z,18.00
2022-10-16T00:17:23.130Z,21.70
2022-10-16T00:22:26.243Z,18.70
2022-10-16T00:27:29.344Z,16.40
2022-10-16T00:32:32.248Z,23.10
2022-10-16T00:37:35.155Z,23.80
2022-10-16T00:42:38.266Z,17.10
2022-10-16T00:47:46.414Z,16.50
2022-10-16T00:52:52.163Z,26.10
2022-10-16T00:57:55.743Z,24.70
2022-10-16T01:03:02.218Z,22.80
2022-10-16T01:08:18.830Z,24.40
2022-10-16T01:13:31.835Z,23.40
2022-10-16T01:18:46.078Z,18.70
2022-10-16T01:23:48.789Z,25.20
2022-10-16T01:29:01.500Z,16.70
2022-10-16T01:34:15.608Z,23.30
2022-10-16T01:39:23.400Z,24.80
2022-10-16T01:44:32.166Z,21.40
2022-10-16T01:49:38.826Z,23.00
2022-10-16T01:54:45.245Z,25.70
2022-10-16T01:59:53.989Z,20.40
2022-10-16T02:05:05.918Z,24.40
2022-10-16T02:10:10.365Z,25.20
2022-10-16T02:15:13.152Z,22.50
2022-10-16T02:20:16.363Z,21.30
2022-10-16T02:25:28.378Z,23.90
2022-10-16T02:30:49.613Z,23.30
2022-10-16T02:35:53.845Z,23.80
2022-10-16T02:40:57.332Z,24.60
2022-10-16T02:46:00.575Z,23.90
2022-10-16T02:51:03.479Z,17.90
2022-10-16T02:56:06.532Z,22.40
2022-10-16T03:01:09.569Z,22.60
2022-10-16T03:06:12.906Z,21.60
2022-10-16T03:11:16.219Z,24.40
2022-10-16T03:16:19.227Z,22.20
2022-10-16T03:21:22.028Z,22.00
2022-10-16T03:26:24.841Z,21.20
2022-10-16T03:31:27.569Z,21.60
2022-10-16T03:36:30.844Z,22.40
2022-10-16T03:41:33.651Z,21.80
2022-10-16T03:46:36.447Z,20.30
2022-10-16T03:51:39.353Z,23.40
2022-10-16T03:56:42.152Z,21.70
2022-10-16T04:01:45.063Z,22.80
2022-10-16T04:06:47.862Z,23.30
2022-10-16T04:11:51.172Z,23.80
2022-10-16T04:16:54.287Z,21.70
2022-10-16T04:21:57.089Z,20.20
2022-10-16T04:26:59.890Z,22.10
2022-10-16T04:32:02.689Z,21.10
2022-10-16T04:37:05.492Z,23.40
2022-10-16T04:42:08.227Z,22.20
2022-10-16T04:47:11.093Z,17.50
2022-10-16T04:52:13.896Z,23.30
2022-10-16T04:57:16.610Z,22.10
2022-10-16T05:02:19.499Z,22.30
2022-10-16T05:07:22.717Z,21.70
2022-10-16T05:12:25.857Z,21.60
2022-10-16T05:17:29.152Z,18.30
2022-10-16T05:22:32.240Z,19.60
2022-10-16T05:27:35.042Z,19.00
2022-10-16T05:32:37.844Z,16.60
2022-10-16T05:37:40.648Z,14.40
2022-10-16T05:42:43.431Z,15.70
2022-10-16T05:47:46.254Z,13.40
2022-10-16T05:52:49.054Z,14.20
2022-10-16T05:57:51.858Z,14.80
2022-10-16T06:02:54.864Z,14.40
2022-10-16T06:07:57.666Z,13.70
2022-10-16T06:13:00.776Z,14.00
2022-10-16T06:18:03.674Z,12.80
2022-10-16T06:23:06.477Z,12.20
2022-10-16T06:28:09.279Z,11.70
2022-10-16T06:33:12.455Z,11.40
2022-10-16T06:38:15.198Z,12.40
2022-10-16T06:43:17.997Z,13.00
2022-10-16T06:48:21.580Z,13.60
2022-10-16T06:53:25.132Z,10.30
2022-10-16T06:58:27.940Z,13.40
2022-10-16T07:03:30.943Z,11.30
2022-10-16T07:08:35.422Z,12.20
2022-10-16T07:13:40.384Z,11.80
2022-10-16T07:18:46.178Z,11.30
2022-10-16T07:23:53.130Z,10.20
2022-10-16T07:28:56.155Z,11.40
2022-10-16T07:34:01.155Z,9.70
2022-10-16T07:39:05.179Z,9.60
2022-10-16T07:44:08.106Z,9.20
2022-10-16T07:49:10.908Z,9.30
2022-10-16T07:54:13.705Z,8.80
2022-10-16T07:59:16.512Z,9.60
2022-10-16T08:04:19.307Z,8.50
2022-10-16T08:09:22.211Z,8.40
2022-10-16T08:14:25.524Z,8.90
2022-10-16T08:19:28.328Z,8.20
2022-10-16T08:24:32.458Z,6.60
2022-10-16T08:29:35.466Z,8.70
2022-10-16T08:34:38.267Z,8.50
2022-10-16T08:39:41.068Z,7.00
2022-10-16T08:44:49.913Z,9.10
2022-10-16T08:50:14.833Z,9.10
2022-10-16T08:55:48.252Z,9.50
2022-10-16T09:00:55.915Z,7.50
2022-10-16T09:06:12.094Z,7.70
2022-10-16T09:11:50.526Z,8.90
2022-10-16T09:17:04.845Z,8.20
2022-10-16T09:22:17.223Z,8.00
2022-10-16T09:27:20.026Z,6.80
2022-10-16T09:32:24.293Z,8.70
2022-10-16T09:37:27.948Z,8.50
2022-10-16T09:42:38.056Z,8.10
2022-10-16T09:47:43.824Z,9.10
2022-10-16T09:52:46.629Z,6.90
2022-10-16T09:57:56.291Z,8.80
2022-10-16T10:02:59.095Z,8.00
2022-10-16T10:08:09.458Z,8.40
2022-10-16T10:13:23.849Z,6.60
2022-10-16T10:18:27.567Z,7.20
2022-10-16T10:23:31.988Z,7.60
2022-10-16T10:28:56.230Z,7.10
2022-10-16T10:33:59.013Z,6.50
2022-10-16T10:39:04.128Z,6.20
2022-10-16T10:44:44.912Z,6.10
2022-10-16T10:49:56.878Z,5.00
2022-10-16T10:55:34.395Z,5.30
2022-10-16T11:01:00.238Z,4.80
2022-10-16T11:06:08.772Z,5.00
2022-10-16T11:11:25.503Z,5.70
2022-10-16T11:16:40.285Z,5.40
2022-10-16T11:21:55.278Z,6.30
2022-10-16T11:27:05.900Z,6.70
2022-10-16T11:32:25.042Z,6.40
2022-10-16T11:37:39.416Z,7.00
2022-10-16T11:42:49.796Z,6.80
2022-10-16T11:48:26.082Z,7.30
2022-10-16T11:54:03.293Z,6.70
2022-10-16T11:59:21.460Z,5.40
2022-10-16T12:04:35.827Z,6.40
2022-10-16T12:09:41.599Z,5.60
2022-10-16T12:15:11.328Z,6.20
2022-10-16T12:20:12.801Z,5.00
2022-10-16T12:30:32.291Z,4.20
2022-10-16T12:35:46.334Z,5.80
2022-10-16T12:41:00.374Z,5.80
2022-10-16T12:46:22.706Z,5.90
2022-10-16T12:51:31.679Z,5.90
2022-10-16T12:56:59.865Z,5.00
2022-10-16T13:02:34.617Z,5.70
2022-10-16T13:08:01.282Z,6.70
2022-10-16T13:13:07.153Z,6.90
2022-10-16T13:18:34.392Z,7.50
2022-10-16T13:24:04.569Z,7.80
2022-10-16T13:29:07.830Z,7.10
2022-10-16T13:34:29.758Z,6.70
2022-10-16T13:39:32.639Z,6.70
2022-10-16T13:44:48.622Z,7.00
2022-10-16T13:50:06.625Z,6.30
2022-10-16T13:55:14.836Z,6.90
2022-10-16T14:00:31.308Z,7.50
2022-10-16T14:05:35.697Z,5.60
2022-10-16T14:10:39.526Z,8.20
2022-10-16T14:15:48.808Z,10.20
2022-10-16T14:20:52.091Z,8.80
2022-10-16T14:25:55.100Z,6.40
2022-10-16T14:30:59.338Z,6.20
2022-10-16T14:36:11.862Z,6.50
2022-10-16T14:41:14.975Z,6.70
2022-10-16T14:51:24.904Z,7.60
2022-10-16T14:56:33.326Z,8.10
2022-10-16T15:01:36.419Z,8.10
2022-10-16T15:06:39.224Z,8.50
2022-10-16T15:11:43.134Z,9.10
2022-10-16T15:16:47.078Z,9.60
2022-10-16T15:21:50.330Z,8.60
2022-10-16T15:26:53.197Z,10.60
2022-10-16T15:31:55.997Z,9.60
2022-10-16T15:36:59.618Z,10.20
2022-10-16T15:42:02.420Z,10.70
2022-10-16T15:47:05.322Z,10.30
2022-10-16T15:52:08.088Z,9.20
2022-10-16T15:57:10.926Z,12.30
2022-10-16T16:02:13.842Z,11.20
2022-10-16T16:07:17.138Z,10.20
2022-10-16T16:12:20.048Z,13.60
2022-10-16T16:17:23.054Z,12.60
2022-10-16T16:22:26.358Z,13.50
2022-10-16T16:27:31.273Z,14.20
2022-10-16T16:32:35.849Z,14.00
2022-10-16T16:37:38.665Z,13.30
2022-10-16T16:42:41.471Z,14.10
2022-10-16T16:47:44.215Z,15.70
2022-10-16T16:52:46.969Z,14.20
2022-10-16T16:57:49.767Z,10.50
2022-10-16T17:02:52.883Z,15.00
2022-10-16T17:07:55.681Z,14.80
2022-10-16T17:12:58.501Z,11.70
2022-10-16T17:18:01.285Z,13.80
2022-10-16T17:23:04.043Z,14.60
2022-10-16T17:28:08.628Z,13.80
2022-10-16T17:33:12.495Z,12.80
2022-10-16T17:38:16.892Z,14.30
2022-10-16T17:43:19.743Z,14.00
2022-10-16T17:48:22.601Z,13.70
2022-10-16T17:53:25.401Z,13.10
2022-10-16T18:03:32.031Z,13.10
2022-10-16T18:08:36.879Z,14.40
2022-10-16T18:13:40.193Z,14.40
2022-10-16T18:18:47.294Z,14.40
2022-10-16T18:23:51.849Z,15.20
2022-10-16T18:28:57.485Z,11.20
2022-10-16T18:34:00.720Z,12.50
2022-10-16T18:39:11.300Z,13.60
2022-10-16T18:44:14.770Z,12.40
2022-10-16T18:49:17.622Z,13.40
2022-10-16T18:54:20.938Z,12.00
2022-10-16T18:59:24.264Z,12.90
2022-10-16T19:04:27.052Z,11.70
2022-10-16T19:09:30.059Z,12.30
2022-10-16T19:14:32.964Z,13.00
2022-10-16T19:19:38.327Z,12.60
2022-10-16T19:24:41.656Z,11.90
2022-10-16T19:29:44.543Z,11.40
2022-10-16T19:34:51.273Z,14.40
2022-10-16T19:39:54.142Z,10.50
2022-10-16T19:44:56.945Z,12.50
2022-10-16T19:49:59.745Z,12.40
2022-10-16T19:55:02.853Z,12.60
2022-10-16T20:00:07.450Z,12.50
2022-10-16T20:05:10.504Z,12.40
2022-10-16T20:10:13.306Z,11.90
2022-10-16T20:15:16.419Z,12.30
2022-10-16T20:20:19.329Z,12.20
2022-10-16T20:25:22.327Z,11.90
2022-10-16T20:30:25.233Z,13.10
2022-10-16T20:35:28.543Z,13.00
2022-10-16T20:40:33.907Z,12.30
2022-10-16T20:45:36.710Z,12.40
2022-10-16T20:50:41.205Z,12.20
2022-10-16T20:55:44.258Z,12.50
2022-10-16T21:00:47.160Z,12.80
2022-10-16T21:05:50.475Z,12.20
2022-10-16T21:10:53.276Z,12.20
2022-10-16T21:15:56.081Z,11.10
2022-10-16T21:20:58.881Z,13.40
2022-10-16T21:26:01.784Z,13.00
2022-10-16T21:31:15.875Z,13.00
2022-10-16T21:36:21.930Z,13.30
2022-10-16T21:41:27.803Z,12.70
2022-10-16T21:46:32.987Z,13.40
2022-10-16T21:51:42.008Z,13.90
2022-10-16T21:56:45.017Z,13.30
2022-10-16T22:01:48.551Z,13.30
2022-10-16T22:06:51.444Z,13.30
2022-10-16T22:11:54.650Z,13.30
2022-10-16T22:16:57.653Z,14.00
2022-10-16T22:22:01.484Z,13.40
2022-10-16T22:27:04.489Z,15.00
2022-10-16T22:32:08.007Z,13.80
2022-10-16T22:37:11.012Z,13.90
2022-10-16T22:42:13.821Z,14.10
2022-10-16T22:47:17.545Z,12.60
2022-10-16T22:52:20.547Z,13.40
2022-10-16T22:57:23.861Z,14.20
2022-10-16T23:02:26.944Z,13.60
2022-10-16T23:07:31.619Z,13.30
2022-10-16T23:12:36.257Z,12.60
2022-10-16T23:17:39.061Z,13.40
2022-10-16T23:22:41.967Z,12.70
2022-10-16T23:27:44.868Z,12.50
2022-10-16T23:32:48.278Z,13.10
2022-10-16T23:37:51.709Z,12.30
2022-10-16T23:42:54.505Z,13.10
2022-10-16T23:47:57.302Z,12.30
2022-10-16T23:53:00.108Z,12.60
2022-10-16T23:58:03.486Z,12.00
